»·PEaware :: SWA1544 KLAS-KONT

SWA1544 :: KLAS-KONT

FLIGHT INFORMATION

Flight Status: Arrived
Operator:
Southwest Airlines
More flights by this operator :: More flights under this callsign
Pilot: Luc P. (3613)
Aircraft: Unknown
(B38M)
More flights by this aircraft type
Origin: KLAS McCarran Intl
United States
Destination: KONT Ontario Intl
United States
More flights between these airports :: More routes between these airports
Route: BOACH8 WHIGG FEYLA JCKIE2
File this flight plan on PilotEdge
Remarks:
Altitude:
(Current/Filed)
28,000ft
Speed:
(Current/Filed)
401kts
Departed: 07-Jan-21 11:13 AM
Arrived: 07-Jan-21 11:50 AM
Distance/Time
Traveled:
170nm/0:37
Distance/Time
To Go:
Arrived

Flight Plot

Page will automatically refresh every two minutes.

Flight plan parsing failed; only flown route is shown


Map Options




Map Legend


Flown Route
Filed Route
Departure Airport
Arrival Airport
Navaid (VOR, NDB)
Fix

Horizontal Profiles

Position Reports

Time Latitude Longitude Heading Altitude Ground
Speed
07-Jan-21 10:18 36.080317 -115.147296 66 2104ft 0kts
07-Jan-21 10:19 36.080317 -115.147296 66 2104ft 0kts
07-Jan-21 10:20 36.080317 -115.147296 66 2104ft 0kts
07-Jan-21 10:21 36.080317 -115.147296 66 2104ft 0kts
07-Jan-21 10:22 36.080317 -115.147296 66 2104ft 0kts
07-Jan-21 10:23 36.080317 -115.147296 66 2104ft 0kts
07-Jan-21 10:24 36.080317 -115.147296 66 2104ft 0kts
07-Jan-21 10:25 36.080317 -115.147296 66 2104ft 0kts
07-Jan-21 10:26 36.080317 -115.147296 66 2104ft 0kts
07-Jan-21 10:27 36.080317 -115.147296 66 2104ft 0kts
07-Jan-21 10:28 36.080317 -115.147296 66 2104ft 0kts
07-Jan-21 10:29 36.080317 -115.147296 66 2104ft 0kts
07-Jan-21 10:30 36.080317 -115.147296 66 2104ft 0kts
07-Jan-21 10:31 36.080317 -115.147296 66 2104ft 0kts
07-Jan-21 10:32 36.080136 -115.147799 65 2106ft 2kts
07-Jan-21 10:33 36.080258 -115.148067 155 2106ft 0kts
07-Jan-21 10:34 36.080258 -115.148067 155 2106ft 0kts
07-Jan-21 10:35 36.080258 -115.148067 155 2106ft 0kts
07-Jan-21 10:36 36.080258 -115.148067 155 2106ft 0kts
07-Jan-21 10:37 36.079795 -115.147799 155 2106ft 4kts
07-Jan-21 10:40 36.079053 -115.147375 155 2105ft 0kts
07-Jan-21 10:41 36.079053 -115.147375 155 2105ft 0kts
07-Jan-21 10:42 36.079053 -115.147375 155 2105ft 0kts
07-Jan-21 10:43 36.079053 -115.147375 155 2105ft 0kts
07-Jan-21 10:44 36.079050 -115.147373 155 2105ft 0kts
07-Jan-21 10:45 36.079111 -115.148204 333 2107ft 8kts
07-Jan-21 10:46 36.080319 -115.147289 67 2104ft 2kts
07-Jan-21 10:54 36.080317 -115.147296 66 2104ft 0kts
07-Jan-21 10:55 36.080317 -115.147296 66 2104ft 0kts
07-Jan-21 10:56 36.080317 -115.147296 66 2104ft 0kts
07-Jan-21 10:57 36.080317 -115.147296 66 2104ft 0kts
07-Jan-21 10:58 36.080317 -115.147296 66 2104ft 0kts
07-Jan-21 10:59 36.080317 -115.147296 66 2104ft 0kts
07-Jan-21 11:00 36.080317 -115.147296 66 2104ft 0kts
07-Jan-21 11:01 36.080128 -115.147818 81 2106ft 1kts
07-Jan-21 11:02 36.080281 -115.148079 155 2106ft 0kts
07-Jan-21 11:03 36.080281 -115.148079 155 2106ft 0kts
07-Jan-21 11:04 36.080281 -115.148079 155 2106ft 0kts
07-Jan-21 11:05 36.079571 -115.147664 155 2106ft 5kts
07-Jan-21 11:06 36.079167 -115.147434 155 2105ft 0kts
07-Jan-21 11:07 36.078664 -115.147133 145 2105ft 5kts
07-Jan-21 11:08 36.078269 -115.143164 92 2090ft 19kts
07-Jan-21 11:09 36.078276 -115.135019 89 2068ft 24kts
07-Jan-21 11:10 36.078269 -115.125951 90 2048ft 26kts
07-Jan-21 11:11 36.077609 -115.121703 129 2042ft 7kts
07-Jan-21 11:12 36.076447 -115.126296 269 2049ft 91kts
07-Jan-21 11:13 36.076557 -115.182243 271 3855ft 191kts
07-Jan-21 11:14 36.055411 -115.255899 220 5910ft 274kts
07-Jan-21 11:15 35.985246 -115.295981 200 6981ft 279kts
07-Jan-21 11:17 35.907043 -115.309572 184 9967ft 293kts
07-Jan-21 11:18 35.818602 -115.311939 176 12788ft 335kts
07-Jan-21 11:19 35.723225 -115.303017 190 16158ft 354kts
07-Jan-21 11:20 35.636279 -115.352995 228 19227ft 353kts
07-Jan-21 11:21 35.570193 -115.439956 233 19333ft 354kts
07-Jan-21 11:22 35.504169 -115.528598 233 22636ft 358kts
07-Jan-21 11:23 35.436254 -115.620300 233 25329ft 371kts
07-Jan-21 11:24 35.365466 -115.715639 233 27699ft 385kts
07-Jan-21 11:25 35.290407 -115.816428 233 28258ft 412kts
07-Jan-21 11:26 35.214084 -115.918292 233 28251ft 388kts
07-Jan-21 11:27 35.139466 -116.017377 232 28266ft 395kts
07-Jan-21 11:28 35.065333 -116.115462 232 27484ft 389kts
07-Jan-21 11:29 34.992460 -116.210879 229 25713ft 382kts
07-Jan-21 11:30 34.915140 -116.298222 227 23232ft 375kts
07-Jan-21 11:30 34.853142 -116.369412 228 21845ft 351kts
07-Jan-21 11:32 34.775351 -116.471579 238 20966ft 339kts
07-Jan-21 11:33 34.718265 -116.568166 237 19972ft 356kts
07-Jan-21 11:33 34.670611 -116.648424 237 18775ft 347kts
07-Jan-21 11:35 34.604984 -116.758545 236 16141ft 344kts
07-Jan-21 11:36 34.559627 -116.855955 243 14634ft 321kts
07-Jan-21 11:36 34.516802 -116.930918 231 13844ft 336kts
07-Jan-21 11:37 34.455819 -117.015573 224 11801ft 329kts
07-Jan-21 11:38 34.380509 -117.068533 208 10865ft 304kts
07-Jan-21 11:39 34.307096 -117.113788 207 9996ft 280kts
07-Jan-21 11:40 34.239903 -117.154493 207 10000ft 268kts
07-Jan-21 11:41 34.176625 -117.192720 207 9524ft 244kts
07-Jan-21 11:42 34.116739 -117.229683 208 8062ft 239kts
07-Jan-21 11:43 34.080151 -117.291250 241 6605ft 226kts
07-Jan-21 11:44 34.057993 -117.359315 261 5255ft 214kts
07-Jan-21 11:45 34.056535 -117.428695 272 3777ft 199kts
07-Jan-21 11:46 34.056447 -117.489604 270 2623ft 158kts
07-Jan-21 11:47 34.056648 -117.540882 270 1637ft 150kts
07-Jan-21 11:48 34.056911 -117.591257 270 933ft 134kts
07-Jan-21 11:49 34.057788 -117.602446 9 934ft 3kts
07-Jan-21 11:50 34.058603 -117.599866 2 935ft 9kts
07-Jan-21 11:51 34.059012 -117.596775 89 935ft 12kts
07-Jan-21 11:52 34.059017 -117.592148 90 937ft 15kts
07-Jan-21 11:53 34.059017 -117.587879 90 938ft 8kts
07-Jan-21 11:54 34.059637 -117.586935 0 940ft 0kts
07-Jan-21 11:55 34.059644 -117.586935 0 940ft 0kts

Navigation Log

Ident Type
Flight plan parsing failed, navigation log unavailable